Aeroporto :
LOGIN :

Iscrizione | Disclaimer

   EN    FR    IT 

 










Sommario :    VFR   VFR Marginale   IFR   IFR Intensivo   IFR Molto Intensivo
Visibilità : 
Base nubi : 
>= 8 km
>= 3000ft
5 / 8 km
1000 / 3000 ft
1500m / 5 km
500 / 1000 ft
800 / 1500m
200 / 500 ft
< 800m
< 200 ft
Simboli :   Temporali  Nebbia  Neve Forte  Precipitazioni Forti  Vento > 20 kt
SIGMETs :   Varie  Temporali  Ghiacco  Turbolenza  Onda orograficha  Ceneri Vulcaniche






- Altitudine del aeroporto : 32 ft
- Codice IATA : LKZ


EGUL - RAF Lakenheath

ULTIMO METAR :
  • 181156Z AUTO 01012G20KT 9999 -RA OVC010 13/12 A2991 RMK AO2 CIG 009 RWY24 SLP132 P0005 60051 70078 T01300119 10138 20130 57014 $

METARs OBSOLETI :
  • 181141Z AUTO 02014KT 9999 -RA OVC010 13/12 A2992 RMK AO2 CIG 009 RWY24 SLP135 $
  • 181056Z AUTO 01010KT 9999 +RA BR FEW007 OVC010 13/12 A2993 RMK AO2 SLP139 P0027 T01320119 $
  • 181026Z AUTO 36006KT 9999 +RA BR OVC010 13/12 A2994 RMK AO2 SLP142 $
  • 180956Z AUTO 01008KT 9999 +RA BR OVC009 14/12 A2994 RMK AO2 CIG 008 RWY24 SLP142 P0008 T01350121 $

TAF AMD TAF EGUL
Valido dal 18 a 07 ore il 19 a 10 ore UTC


180726Z 1807/1910 02010G15KT 7000 -SHRA BR OVC006 QNH2989INS
TEMPO 1807/1810 3200 -SHRA BR OVC004
BECMG 1811/1812 04015G25KT 5000 -SHRA BR BKN008 OVC015 QNH2986INS
TEMPO 1812/1818 3200 -SHRA VCTS BKN007 BKN010 OVC030CB
BECMG 1817/1818 02020G30KT 5000 -SHRA BR OVC007 510003 QNH2985INS
BECMG 1821/1822 36015G20KT 3200 -SHRA BR OVC005 QNH2984INS
BECMG 1901/1902 35012G18KT 3200 BR OVC005 QNH2991INS
BECMG 1905/1906 34010G15KT 1600 BR SCT005 BKN010 QNH2995INS
BECMG 1908/1909 03009KT 9999 NSW FEW005 BKN015 QNH3002INS TX15/1812Z TN12/1901Z LAST NO AMDS AFT 1807 NEXT 2110Z



MetMap, La meteo Aeronautica in un colpo d'occhio ! - Copyright ORBIFLY Dicembre 2007 - Disclaimer

ORBIFLY MET'MAP TEAM :

Programmazione e sviluppo : Alexandra Zaïnal
Concezione : Baudouin d'Aumeries
Aiuto per la programmazione : Marc-Olivier Méhu
Supporto tecnico e logistico : Manuel Goepfert
Aiuto per la traduzione : Arnaldo La Scala

Contatto : metmap@orbifly.com




FONTI E CREDITI :

   NOAA